Baldwin City, Kansas
Current Conditions -  °F | °C
As of 6:52 AM on Saturday 20 Dec 2014 (Local Time) from KLWC Reporting Station
Scattered Clouds Scattered Clouds  
Wind Chill: 26°   Ceiling: Unl
Heat Index: 33°   Visibility: 8mi
Dew Point: 29°   Wind: 8mph
Humidity: 85%   Direction: 160°SSE
Pressure: 30.17"   Gusts: NA
Location:  38.78°N, 95.19°W
Report Text: KLWC 201252Z AUTO 16007KT 8SM SCT016 01/M02 A3017 RMK AO2 SLP225 T00061017
Loading
Personal Weather Stations






























Interactive Weather Map New forecast layout! Learn more

10-Day Weather Forecast

Advertisements
Track Severe Weather on mobile